createdAt,value
2018-06-13T00:00:55.496Z,16.93
2018-06-13T00:03:23.903Z,16.90
2018-06-13T00:05:52.346Z,16.88
2018-06-13T00:08:20.750Z,16.86
2018-06-13T00:10:49.178Z,16.84
2018-06-13T00:13:17.574Z,16.82
2018-06-13T00:15:45.995Z,16.79
2018-06-13T00:18:14.390Z,16.79
2018-06-13T00:20:42.820Z,16.74
2018-06-13T00:23:11.222Z,16.73
2018-06-13T00:25:39.667Z,16.73
2018-06-13T00:28:08.058Z,16.73
2018-06-13T00:30:36.454Z,16.72
2018-06-13T00:33:04.874Z,16.71
2018-06-13T00:35:33.278Z,16.68
2018-06-13T00:38:01.703Z,16.53
2018-06-13T00:40:30.107Z,16.64
2018-06-13T00:42:58.531Z,16.60
2018-06-13T00:45:27.009Z,16.60
2018-06-13T00:47:55.431Z,16.60
2018-06-13T00:50:23.830Z,16.60
2018-06-13T00:52:52.263Z,16.60
2018-06-13T00:55:20.666Z,16.61
2018-06-13T00:57:49.875Z,16.64
2018-06-13T01:00:18.272Z,16.65
2018-06-13T01:02:46.695Z,16.66
2018-06-13T01:05:15.134Z,16.68
2018-06-13T01:07:43.554Z,16.70
2018-06-13T01:10:11.963Z,16.69
2018-06-13T01:12:40.382Z,16.69
2018-06-13T01:15:08.791Z,16.69
2018-06-13T01:17:37.214Z,16.69
2018-06-13T01:20:05.628Z,16.68
2018-06-13T01:22:34.050Z,16.66
2018-06-13T01:25:02.457Z,16.66
2018-06-13T01:27:30.890Z,16.64
2018-06-13T01:29:59.282Z,16.60
2018-06-13T01:32:27.707Z,16.54
2018-06-13T01:34:56.115Z,16.49
2018-06-13T01:37:24.542Z,16.42
2018-06-13T01:39:52.938Z,16.38
2018-06-13T01:42:21.333Z,16.30
2018-06-13T01:44:49.750Z,16.25
2018-06-13T01:47:18.152Z,16.17
2018-06-13T01:49:46.566Z,16.11
2018-06-13T01:52:14.961Z,16.05
2018-06-13T01:54:43.370Z,16.02
2018-06-13T01:57:11.762Z,15.98
2018-06-13T01:59:40.181Z,15.94
2018-06-13T02:02:08.577Z,15.93
2018-06-13T02:04:37.017Z,15.87
2018-06-13T02:07:05.414Z,15.84
2018-06-13T02:09:33.841Z,15.78
2018-06-13T02:12:02.309Z,15.73
2018-06-13T02:14:30.737Z,15.66
2018-06-13T02:16:59.134Z,15.60
2018-06-13T02:19:27.554Z,15.55
2018-06-13T02:21:55.953Z,15.50
2018-06-13T02:24:24.370Z,15.45
2018-06-13T02:26:52.770Z,15.44
2018-06-13T02:29:21.190Z,15.43
2018-06-13T02:31:49.587Z,15.43
2018-06-13T02:34:18.011Z,15.40
2018-06-13T02:36:46.414Z,15.37
2018-06-13T02:39:14.843Z,15.37
2018-06-13T02:41:43.246Z,15.37
2018-06-13T02:44:11.669Z,15.37
2018-06-13T02:46:40.079Z,15.38
2018-06-13T02:49:08.769Z,15.40
2018-06-13T02:51:37.171Z,15.43
2018-06-13T02:54:05.599Z,15.46
2018-06-13T02:56:34.007Z,15.49
2018-06-13T02:59:02.414Z,15.51
2018-06-13T03:01:30.843Z,15.54
2018-06-13T03:03:59.262Z,15.55
2018-06-13T03:06:27.686Z,15.59
2018-06-13T03:08:56.079Z,15.60
2018-06-13T03:11:24.502Z,15.63
2018-06-13T03:13:52.894Z,15.63
2018-06-13T03:16:21.315Z,15.65
2018-06-13T03:18:49.715Z,15.66
2018-06-13T03:21:18.130Z,15.65
2018-06-13T03:23:46.523Z,15.65
2018-06-13T03:26:14.942Z,15.66
2018-06-13T03:28:43.348Z,15.68
2018-06-13T03:31:11.761Z,15.68
2018-06-13T03:33:40.170Z,15.69
2018-06-13T03:36:08.587Z,15.68
2018-06-13T03:38:36.982Z,15.68
2018-06-13T03:41:05.435Z,15.67
2018-06-13T03:43:33.817Z,15.67
2018-06-13T03:46:02.243Z,15.67
2018-06-13T03:48:30.638Z,15.67
2018-06-13T03:50:59.066Z,15.68
2018-06-13T03:53:27.463Z,15.67
2018-06-13T03:55:55.874Z,15.67
2018-06-13T03:58:24.270Z,15.67
2018-06-13T04:00:52.697Z,15.67
2018-06-13T04:03:21.118Z,15.69
2018-06-13T04:05:49.558Z,15.68
2018-06-13T04:08:17.950Z,15.69
2018-06-13T04:10:46.356Z,15.72
2018-06-13T04:13:14.784Z,15.72
2018-06-13T04:15:43.199Z,15.74
2018-06-13T04:18:11.590Z,15.73
2018-06-13T04:21:00.670Z,15.75
2018-06-13T04:23:29.610Z,15.78
2018-06-13T04:25:59.017Z,15.82
2018-06-13T04:28:27.482Z,15.86
2018-06-13T04:30:56.351Z,15.93
2018-06-13T04:33:24.738Z,15.99
2018-06-13T04:35:53.153Z,16.04
2018-06-13T04:38:21.542Z,16.06
2018-06-13T04:40:49.909Z,16.12
2018-06-13T04:43:18.297Z,16.16
2018-06-13T04:45:46.666Z,16.19
2018-06-13T04:48:15.072Z,16.23
2018-06-13T04:50:43.448Z,16.25
2018-06-13T04:53:11.845Z,16.28
2018-06-13T04:55:40.214Z,16.30
2018-06-13T04:58:08.607Z,16.33
2018-06-13T05:00:36.978Z,16.35
2018-06-13T05:03:05.375Z,16.39
2018-06-13T05:05:33.767Z,16.45
2018-06-13T05:08:02.165Z,16.50
2018-06-13T05:10:30.530Z,16.58
2018-06-13T05:12:58.984Z,16.67
2018-06-13T05:15:27.360Z,16.74
2018-06-13T05:17:55.760Z,16.80
2018-06-13T05:20:24.126Z,16.87
2018-06-13T05:22:52.531Z,16.91
2018-06-13T05:25:20.898Z,16.96
2018-06-13T05:27:49.288Z,17.01
2018-06-13T05:30:17.669Z,17.03
2018-06-13T05:32:46.074Z,17.07
2018-06-13T05:35:14.447Z,17.13
2018-06-13T05:37:42.838Z,17.21
2018-06-13T05:40:11.231Z,17.29
2018-06-13T05:42:39.603Z,17.37
2018-06-13T05:45:07.998Z,17.48
2018-06-13T05:47:36.375Z,17.64
2018-06-13T05:50:04.770Z,17.78
2018-06-13T05:52:33.134Z,17.97
2018-06-13T05:55:01.581Z,18.17
2018-06-13T05:57:29.950Z,18.32
2018-06-13T05:59:58.338Z,18.47
2018-06-13T06:02:26.857Z,18.60
2018-06-13T06:04:55.282Z,18.66
2018-06-13T06:07:23.666Z,18.64
2018-06-13T06:09:52.058Z,18.57
2018-06-13T06:12:20.430Z,18.51
2018-06-13T06:14:48.822Z,18.49
2018-06-13T06:17:17.190Z,18.47
2018-06-13T06:19:45.590Z,18.45
2018-06-13T06:22:13.962Z,18.46
2018-06-13T06:24:42.351Z,18.51
2018-06-13T06:27:10.726Z,18.49
2018-06-13T06:29:39.143Z,18.53
2018-06-13T06:32:07.518Z,18.66
2018-06-13T06:34:35.898Z,18.72
2018-06-13T06:37:04.295Z,18.84
2018-06-13T06:39:32.666Z,18.88
2018-06-13T06:42:01.068Z,18.94
2018-06-13T06:44:29.551Z,18.94
2018-06-13T06:46:57.966Z,18.93
2018-06-13T06:49:26.334Z,18.94
2018-06-13T06:51:54.730Z,18.92
2018-06-13T06:54:23.103Z,18.90
2018-06-13T06:56:51.502Z,18.83
2018-06-13T06:59:19.874Z,18.70
2018-06-13T07:01:48.266Z,18.57
2018-06-13T07:04:16.658Z,18.43
2018-06-13T07:06:45.055Z,18.29
2018-06-13T07:09:13.450Z,18.18
2018-06-13T07:11:41.846Z,18.09
2018-06-13T07:14:10.217Z,18.01
2018-06-13T07:16:38.618Z,17.93
2018-06-13T07:19:07.027Z,17.88
2018-06-13T07:21:35.426Z,17.84
2018-06-13T07:24:03.804Z,17.82
2018-06-13T07:26:32.211Z,17.84
2018-06-13T07:29:00.588Z,17.87
2018-06-13T07:31:28.990Z,17.92
2018-06-13T07:33:57.362Z,17.95
2018-06-13T07:36:25.733Z,17.98
2018-06-13T07:38:54.122Z,18.02
2018-06-13T07:41:22.515Z,18.08
2018-06-13T07:43:50.930Z,18.17
2018-06-13T07:46:19.298Z,18.25
2018-06-13T07:48:47.719Z,18.35
2018-06-13T07:51:16.082Z,18.47
2018-06-13T07:53:44.482Z,18.54
2018-06-13T07:56:12.858Z,18.62
2018-06-13T07:58:41.254Z,18.69
2018-06-13T08:01:09.622Z,18.76
2018-06-13T08:03:38.041Z,18.87
2018-06-13T08:06:06.418Z,18.98
2018-06-13T08:08:34.918Z,19.09
2018-06-13T08:11:03.206Z,19.14
2018-06-13T08:13:31.594Z,19.19
2018-06-13T08:15:59.967Z,19.24
2018-06-13T08:18:28.358Z,19.28
2018-06-13T08:20:56.741Z,19.34
2018-06-13T08:23:25.134Z,19.38
2018-06-13T08:25:53.498Z,19.43
2018-06-13T08:28:21.903Z,19.49
2018-06-13T08:30:50.278Z,19.51
2018-06-13T08:33:18.671Z,19.53
2018-06-13T08:35:47.038Z,19.54
2018-06-13T08:38:15.454Z,19.54
2018-06-13T08:40:43.822Z,19.52
2018-06-13T08:43:12.198Z,19.52
2018-06-13T08:45:40.610Z,19.52
2018-06-13T08:48:08.978Z,19.52
2018-06-13T08:50:37.377Z,19.50
2018-06-13T08:53:05.770Z,19.48
2018-06-13T08:55:34.170Z,19.43
2018-06-13T08:58:02.545Z,19.38
2018-06-13T09:00:30.946Z,19.34
2018-06-13T09:02:59.313Z,19.32
2018-06-13T09:05:27.735Z,19.28
2018-06-13T09:07:56.107Z,19.30
2018-06-13T09:10:24.502Z,19.36
2018-06-13T09:12:52.874Z,19.46
2018-06-13T09:15:21.275Z,19.55
2018-06-13T09:17:49.651Z,19.63
2018-06-13T09:20:18.047Z,19.68
2018-06-13T09:22:46.422Z,19.70
2018-06-13T09:25:14.809Z,19.73
2018-06-13T09:27:43.186Z,19.73
2018-06-13T09:30:12.396Z,19.71
2018-06-13T09:32:40.767Z,19.69
2018-06-13T09:35:09.319Z,19.70
2018-06-13T09:37:37.785Z,19.75
2018-06-13T09:40:06.109Z,19.82
2018-06-13T09:42:34.481Z,19.91
2018-06-13T09:45:02.878Z,20.00
2018-06-13T09:47:31.246Z,20.07
2018-06-13T09:49:59.657Z,20.17
2018-06-13T09:52:28.047Z,20.23
2018-06-13T09:54:56.444Z,20.28
2018-06-13T09:57:24.825Z,20.31
2018-06-13T09:59:58.586Z,20.32
2018-06-13T10:02:37.018Z,20.32
2018-06-13T10:05:06.082Z,20.30
2018-06-13T10:07:34.449Z,20.22
2018-06-13T10:10:02.830Z,20.13
2018-06-13T10:12:31.332Z,20.03
2018-06-13T10:14:59.703Z,19.92
2018-06-13T10:17:28.130Z,19.82
2018-06-13T10:19:56.498Z,19.75
2018-06-13T10:22:24.899Z,19.73
2018-06-13T10:24:53.278Z,19.70
2018-06-13T10:27:27.131Z,19.68
2018-06-13T10:29:55.502Z,19.71
2018-06-13T10:32:23.898Z,19.79
2018-06-13T10:34:52.266Z,19.85
2018-06-13T10:37:20.662Z,19.88
2018-06-13T10:39:49.037Z,19.84
2018-06-13T10:42:17.423Z,19.80
2018-06-13T10:44:45.798Z,19.65
2018-06-13T10:47:14.194Z,19.53
2018-06-13T10:49:42.571Z,19.40
2018-06-13T10:52:10.967Z,19.30
2018-06-13T10:54:39.367Z,19.20
2018-06-13T10:57:07.798Z,19.13
2018-06-13T10:59:36.179Z,19.09
2018-06-13T11:02:04.550Z,19.05
2018-06-13T11:04:32.966Z,19.03
2018-06-13T11:07:01.338Z,18.97
2018-06-13T11:09:29.734Z,18.90
2018-06-13T11:11:58.107Z,18.87
2018-06-13T11:14:26.503Z,18.81
2018-06-13T11:16:54.869Z,18.75
2018-06-13T11:19:30.823Z,18.70
2018-06-13T11:21:59.190Z,18.64
2018-06-13T11:24:27.585Z,18.59
2018-06-13T11:26:55.951Z,18.54
2018-06-13T11:29:24.346Z,18.48
2018-06-13T11:31:53.818Z,18.46
2018-06-13T11:34:22.242Z,18.43
2018-06-13T11:36:51.194Z,18.42
2018-06-13T11:39:19.887Z,18.44
2018-06-13T11:41:48.262Z,18.45
2018-06-13T11:44:16.650Z,18.49
2018-06-13T11:46:45.015Z,18.56
2018-06-13T11:49:13.485Z,18.65
2018-06-13T11:51:41.872Z,18.68
2018-06-13T11:54:10.247Z,18.68
2018-06-13T11:56:38.642Z,18.65
2018-06-13T11:59:07.010Z,18.59
2018-06-13T12:01:35.398Z,18.54
2018-06-13T12:04:03.790Z,18.53
2018-06-13T12:06:32.186Z,18.55
2018-06-13T12:09:00.557Z,18.59
2018-06-13T12:11:28.985Z,18.64
2018-06-13T12:13:57.338Z,18.72
2018-06-13T12:16:25.729Z,18.82
2018-06-13T12:18:54.106Z,18.93
2018-06-13T12:21:23.489Z,19.05
2018-06-13T12:23:51.919Z,19.20
2018-06-13T12:26:20.362Z,19.35
2018-06-13T12:28:48.732Z,19.54
2018-06-13T12:31:17.123Z,19.73
2018-06-13T12:33:45.495Z,19.91
2018-06-13T12:36:13.886Z,20.05
2018-06-13T12:38:42.525Z,20.17
2018-06-13T12:41:10.933Z,20.26
2018-06-13T12:43:39.308Z,20.33
2018-06-13T12:46:07.738Z,20.37
2018-06-13T12:48:36.114Z,20.46
2018-06-13T12:51:04.510Z,20.58
2018-06-13T12:53:32.918Z,20.66
2018-06-13T12:56:02.930Z,20.71
2018-06-13T12:58:31.301Z,20.70
2018-06-13T13:00:59.694Z,20.67
2018-06-13T13:03:28.066Z,20.64
2018-06-13T13:05:56.519Z,20.57
2018-06-13T13:08:24.898Z,20.52
2018-06-13T13:10:53.306Z,20.48
2018-06-13T13:13:21.678Z,20.53
2018-06-13T13:15:50.058Z,20.60
2018-06-13T13:18:18.457Z,20.63
2018-06-13T13:20:46.822Z,20.65
2018-06-13T13:23:15.215Z,20.70
2018-06-13T13:25:43.590Z,20.73
2018-06-13T13:28:11.982Z,20.78
2018-06-13T13:30:40.358Z,20.78
2018-06-13T13:33:08.758Z,20.75
2018-06-13T13:35:37.183Z,20.67
2018-06-13T13:38:05.541Z,20.62
2018-06-13T13:40:33.918Z,20.64
2018-06-13T13:43:02.322Z,20.68
2018-06-13T13:45:30.723Z,20.73
2018-06-13T13:47:59.118Z,20.77
2018-06-13T13:50:27.495Z,20.79
2018-06-13T13:52:55.890Z,20.77
2018-06-13T13:55:24.266Z,20.73
2018-06-13T13:57:52.684Z,20.68
2018-06-13T14:00:21.055Z,20.68
2018-06-13T14:02:49.454Z,20.68
2018-06-13T14:05:17.857Z,20.70
2018-06-13T14:07:46.253Z,20.69
2018-06-13T14:10:14.627Z,20.69
2018-06-13T14:12:43.022Z,20.67
2018-06-13T14:15:11.414Z,20.63
2018-06-13T14:17:39.846Z,20.60
2018-06-13T14:20:09.340Z,20.58
2018-06-13T14:22:37.817Z,20.55
2018-06-13T14:25:06.179Z,20.50
2018-06-13T14:27:34.642Z,20.46
2018-06-13T14:30:03.010Z,20.44
2018-06-13T14:32:31.387Z,20.44
2018-06-13T14:34:59.812Z,20.42
2018-06-13T14:37:28.188Z,20.35
2018-06-13T14:39:56.583Z,20.25
2018-06-13T14:42:24.994Z,20.20
2018-06-13T14:44:53.674Z,20.18
2018-06-13T14:47:22.050Z,20.15
2018-06-13T14:49:50.446Z,20.08
2018-06-13T14:52:18.830Z,19.98
2018-06-13T14:54:47.235Z,19.86
2018-06-13T14:57:15.776Z,19.77
2018-06-13T14:59:44.174Z,19.71
2018-06-13T15:02:12.539Z,19.64
2018-06-13T15:04:40.953Z,19.58
2018-06-13T15:07:09.330Z,19.51
2018-06-13T15:09:37.759Z,19.45
2018-06-13T15:12:06.171Z,19.40
2018-06-13T15:14:34.573Z,19.35
2018-06-13T15:17:02.956Z,19.30
2018-06-13T15:19:31.461Z,19.27
2018-06-13T15:21:59.963Z,19.27
2018-06-13T15:24:28.364Z,19.30
2018-06-13T15:26:56.750Z,19.31
2018-06-13T15:29:25.179Z,19.31
2018-06-13T15:31:53.560Z,19.27
2018-06-13T15:34:21.930Z,19.26
2018-06-13T15:36:50.342Z,19.25
2018-06-13T15:39:18.716Z,19.24
2018-06-13T15:41:47.113Z,19.20
2018-06-13T15:44:15.506Z,19.19
2018-06-13T15:46:43.955Z,19.17
2018-06-13T15:49:12.898Z,19.13
2018-06-13T15:51:41.339Z,19.13
2018-06-13T15:54:09.718Z,19.11
2018-06-13T15:56:38.123Z,19.09
2018-06-13T15:59:06.510Z,19.08
2018-06-13T16:01:34.918Z,19.10
2018-06-13T16:04:03.350Z,19.15
2018-06-13T16:06:31.747Z,19.19
2018-06-13T16:09:00.171Z,19.20
2018-06-13T16:11:28.579Z,19.25
2018-06-13T16:13:57.028Z,19.27
2018-06-13T16:16:25.474Z,19.28
2018-06-13T16:18:53.911Z,19.25
2018-06-13T16:21:22.315Z,19.24
2018-06-13T16:23:50.695Z,19.22
2018-06-13T16:26:19.103Z,19.25
2018-06-13T16:28:47.583Z,19.28
2018-06-13T16:31:16.002Z,19.29
2018-06-13T16:33:44.462Z,19.28
2018-06-13T16:36:12.842Z,19.28
2018-06-13T16:38:41.243Z,19.27
2018-06-13T16:41:09.612Z,19.24
2018-06-13T16:43:38.050Z,19.18
2018-06-13T16:46:06.434Z,19.13
2018-06-13T16:48:35.082Z,19.12
2018-06-13T16:51:14.702Z,19.07
2018-06-13T16:53:54.179Z,19.04
2018-06-13T16:56:22.837Z,19.00
2018-06-13T16:58:51.724Z,18.97
2018-06-13T17:01:20.423Z,18.96
2018-06-13T17:03:48.866Z,18.94
2018-06-13T17:06:17.265Z,18.91
2018-06-13T17:08:45.889Z,18.89
2018-06-13T17:11:14.271Z,18.88
2018-06-13T17:13:42.670Z,18.86
2018-06-13T17:16:11.051Z,18.85
2018-06-13T17:18:39.456Z,18.85
2018-06-13T17:21:07.830Z,18.85
2018-06-13T17:23:36.887Z,18.86
2018-06-13T17:26:05.340Z,18.84
2018-06-13T17:28:33.950Z,18.85
2018-06-13T17:31:02.319Z,18.87
2018-06-13T17:33:31.124Z,18.89
2018-06-13T17:35:59.522Z,18.89
2018-06-13T17:38:27.922Z,18.91
2018-06-13T17:40:56.419Z,18.93
2018-06-13T17:43:24.818Z,18.95
2018-06-13T17:45:53.198Z,18.97
2018-06-13T17:48:21.603Z,18.99
2018-06-13T17:50:50.027Z,19.00
2018-06-13T17:53:18.477Z,19.00
2018-06-13T17:55:46.854Z,19.03
2018-06-13T17:58:15.238Z,18.99
2018-06-13T18:00:43.638Z,18.95
2018-06-13T18:03:12.006Z,18.91
2018-06-13T18:05:40.427Z,18.89
2018-06-13T18:08:08.794Z,18.86
2018-06-13T18:10:37.186Z,18.86
2018-06-13T18:13:05.563Z,18.81
2018-06-13T18:15:33.951Z,18.78
2018-06-13T18:18:02.319Z,18.74
2018-06-13T18:20:30.738Z,18.70
2018-06-13T18:22:59.130Z,18.66
2018-06-13T18:25:27.530Z,18.62
2018-06-13T18:27:55.902Z,18.57
2018-06-13T18:30:24.298Z,18.53
2018-06-13T18:32:52.678Z,18.49
2018-06-13T18:35:21.078Z,18.47
2018-06-13T18:37:49.462Z,18.43
2018-06-13T18:40:17.858Z,18.42
2018-06-13T18:42:46.243Z,18.42
2018-06-13T18:45:14.643Z,18.39
2018-06-13T18:47:43.006Z,18.35
2018-06-13T18:50:11.415Z,18.32
2018-06-13T18:52:39.783Z,18.28
2018-06-13T18:55:08.187Z,18.23
2018-06-13T18:57:36.568Z,18.21
2018-06-13T19:00:05.586Z,18.16
2018-06-13T19:02:33.963Z,18.12
2018-06-13T19:05:02.391Z,18.10
2018-06-13T19:07:30.758Z,18.05
2018-06-13T19:09:59.170Z,18.02
2018-06-13T19:12:28.004Z,17.99
2018-06-13T19:14:56.377Z,17.97
2018-06-13T19:17:24.774Z,17.95
2018-06-13T19:19:53.146Z,17.90
2018-06-13T19:22:21.546Z,17.89
2018-06-13T19:24:49.922Z,17.85
2018-06-13T19:27:18.318Z,17.83
2018-06-13T19:29:46.690Z,17.80
2018-06-13T19:32:15.111Z,17.77
2018-06-13T19:34:43.490Z,17.73
2018-06-13T19:37:11.886Z,17.69
2018-06-13T19:39:40.263Z,17.65
2018-06-13T19:42:08.702Z,17.62
2018-06-13T19:44:37.074Z,17.57
2018-06-13T19:47:10.786Z,17.51
2018-06-13T19:49:39.161Z,17.44
2018-06-13T19:52:07.556Z,17.36
2018-06-13T19:54:41.268Z,17.29
2018-06-13T19:57:09.724Z,17.25
2018-06-13T19:59:38.094Z,17.20
2018-06-13T20:02:06.570Z,17.14
2018-06-13T20:04:40.426Z,17.08
2018-06-13T20:07:08.818Z,17.02
2018-06-13T20:09:37.182Z,16.97
2018-06-13T20:12:10.906Z,16.91
2018-06-13T20:14:44.622Z,16.87
2018-06-13T20:17:18.411Z,16.82
2018-06-13T20:19:48.651Z,16.78
2018-06-13T20:22:17.042Z,16.74
2018-06-13T20:24:50.762Z,16.72
2018-06-13T20:27:24.410Z,16.69
2018-06-13T20:30:58.970Z,16.68
2018-06-13T20:33:27.367Z,16.64
2018-06-13T20:35:55.738Z,16.61
2018-06-13T20:38:24.138Z,16.59
2018-06-13T20:40:52.506Z,16.57
2018-06-13T20:43:20.914Z,16.55
2018-06-13T20:45:49.282Z,16.53
2018-06-13T20:48:17.701Z,16.51
2018-06-13T20:50:46.074Z,16.50
2018-06-13T20:53:14.489Z,16.50
2018-06-13T20:55:42.874Z,16.48
2018-06-13T20:58:11.266Z,16.48
2018-06-13T21:00:39.670Z,16.47
2018-06-13T21:03:08.057Z,16.47
2018-06-13T21:05:36.454Z,16.47
2018-06-13T21:08:04.831Z,16.45
2018-06-13T21:10:33.226Z,16.44
2018-06-13T21:13:01.603Z,16.42
2018-06-13T21:15:29.995Z,16.41
2018-06-13T21:17:58.370Z,16.40
2018-06-13T21:20:27.143Z,16.39
2018-06-13T21:22:55.493Z,16.38
2018-06-13T21:25:23.882Z,16.36
2018-06-13T21:27:52.250Z,16.34
2018-06-13T21:30:20.658Z,16.32
2018-06-13T21:32:49.034Z,16.30
2018-06-13T21:35:17.429Z,16.27
2018-06-13T21:37:45.802Z,16.26
2018-06-13T21:40:14.253Z,16.23
2018-06-13T21:42:42.603Z,16.19
2018-06-13T21:45:10.998Z,16.16
2018-06-13T21:47:39.367Z,16.15
2018-06-13T21:50:07.771Z,16.15
2018-06-13T21:52:36.143Z,16.13
2018-06-13T21:55:04.574Z,16.11
2018-06-13T21:57:32.946Z,16.09
2018-06-13T22:00:01.365Z,16.07
2018-06-13T22:02:29.747Z,16.04
2018-06-13T22:04:58.138Z,15.98
2018-06-13T22:07:26.564Z,15.95
2018-06-13T22:09:54.930Z,15.88
2018-06-13T22:12:23.330Z,15.83
2018-06-13T22:14:51.714Z,15.76
2018-06-13T22:17:20.110Z,15.72
2018-06-13T22:19:48.490Z,15.66
2018-06-13T22:22:16.882Z,15.61
2018-06-13T22:24:45.246Z,15.58
2018-06-13T22:27:13.642Z,15.54
2018-06-13T22:29:42.025Z,15.51
2018-06-13T22:32:10.422Z,15.44
2018-06-13T22:34:38.803Z,15.38
2018-06-13T22:37:07.206Z,15.33
2018-06-13T22:39:35.579Z,15.28
2018-06-13T22:42:03.998Z,15.24
2018-06-13T22:44:32.394Z,15.20
2018-06-13T22:47:00.831Z,15.14
2018-06-13T22:49:29.198Z,15.09
2018-06-13T22:51:58.599Z,15.04
2018-06-13T22:54:26.987Z,14.98
2018-06-13T22:56:55.388Z,14.92
2018-06-13T22:59:23.762Z,14.86
2018-06-13T23:01:52.152Z,14.82
2018-06-13T23:04:20.546Z,14.78
2018-06-13T23:06:48.947Z,14.75
2018-06-13T23:09:17.322Z,14.69
2018-06-13T23:11:45.719Z,14.66
2018-06-13T23:14:14.110Z,14.61
2018-06-13T23:16:42.482Z,14.57
2018-06-13T23:19:10.875Z,14.54
2018-06-13T23:21:39.246Z,14.50
2018-06-13T23:24:07.643Z,14.46
2018-06-13T23:26:36.031Z,14.43
2018-06-13T23:29:04.516Z,14.39
2018-06-13T23:31:32.888Z,14.36
2018-06-13T23:34:01.279Z,14.32
2018-06-13T23:36:29.772Z,14.30
2018-06-13T23:38:58.166Z,14.27
2018-06-13T23:41:26.535Z,14.25
2018-06-13T23:43:54.962Z,14.20
2018-06-13T23:46:23.376Z,14.17
2018-06-13T23:48:51.766Z,14.15
2018-06-13T23:51:20.143Z,14.10
2018-06-13T23:53:48.537Z,14.09
2018-06-13T23:56:16.915Z,14.07
2018-06-13T23:58:45.311Z,14.02
